Flight Track Log - Related Links

Times and Time Zones

All times are in EDT time to prevent confusion due to time zone crossing. See the DAL930 flight status page for this flight to view local times or setup timezone preferences in your user account.

Time Position Orientation Groundspeed Altitude Reporting Facility
EDT Latitude Longitude Course Direction KTS MPH feet Rate Location/Type
Mon 11:38:41 AM 40.7500 -73.8500 217° Southwest 168 193 1,400  Level New TRACON
Mon 11:39:41 AM 40.7000 -73.8333 166° South 217 250 3,500 2,250 Climbing New TRACON
Mon 11:40:41 AM 40.6500 -73.8667 207° Southwest 235 270 5,900 2,350 Climbing New TRACON
Mon 11:41:41 AM 40.5833 -73.9000 201° Southwest 285 328 8,200 1,886 Climbing New TRACON
Mon 11:44:00 AM 40.1122 -74.1878 217° Southwest  Level FlightAware
Mon 11:44:11 AM 40.3911 -74.0519 211° Southwest 337 388 12,500  Level New Center
Mon 11:45:11 AM 40.3000 -74.1047 204° Southwest 384 442 14,400 2,231 Climbing New Center
Mon 11:46:12 AM 40.1836 -74.1669 202° Southwest 411 473 17,000 2,061 Climbing New Center
Mon 11:46:50 AM 40.1200 -74.1997 202° Southwest 415 478 17,800 1,653 Climbing Washington Center
Mon 11:47:50 AM 40.0189 -74.2750 210° Southwest 497 572 19,700 1,650 Climbing Washington Center
Mon 11:48:50 AM 39.9283 -74.3794 222° Southwest 448 516 21,100 1,600 Climbing Washington Center
Mon 11:49:50 AM 39.8375 -74.4864 222° Southwest 448 516 22,900 1,650 Climbing Washington Center
Mon 11:50:50 AM 39.7447 -74.5931 221° Southwest 448 516 24,400 1,550 Climbing Washington Center
Mon 11:51:50 AM 39.6456 -74.7103 222° Southwest 448 516 26,000 1,750 Climbing Washington Center
Mon 11:52:50 AM 39.5547 -74.8164 222° Southwest 442 509 27,900 1,650 Climbing Washington Center
Mon 11:53:50 AM 39.4700 -74.9167 222° Southwest 437 503 29,300 1,050 Climbing Washington Center
Mon 11:54:50 AM 39.3789 -75.0225 222° Southwest 437 503 30,000 1,100 Climbing Washington Center
Mon 11:55:50 AM 39.2853 -75.1169 218° Southwest 437 503 31,500 1,000 Climbing Washington Center
Mon 11:56:50 AM 39.1731 -75.1686 200° South 430 495 32,000 250 Climbing Washington Center
Mon 11:57:50 AM 39.0544 -75.2119 196° South 432 497 32,000  Level Washington Center
Mon 11:58:50 AM 38.9378 -75.2661 200° South 444 511 32,000  Level Washington Center
Mon 11:59:50 AM 38.8192 -75.3144 198° South 444 511 32,000  Level Washington Center
Mon 12:00:50 PM 38.7003 -75.3656 199° South 444 511 32,000  Level Washington Center
Mon 12:01:50 PM 38.5817 -75.4139 198° South 444 511 32,000  Level Washington Center
Mon 12:02:50 PM 38.4628 -75.4644 198° South 444 511 32,000  Level Washington Center
Mon 12:03:50 PM 38.3419 -75.5122 197° South 449 517 32,000  Level Washington Center
Mon 12:04:50 PM 38.2336 -75.5786 206° Southwest 444 511 32,000  Level Washington Center
Mon 12:05:50 PM 38.1211 -75.6497 206° Southwest 449 517 32,000  Level Washington Center
Mon 12:06:50 PM 38.0250 -75.7208 210° Southwest 449 517 32,000  Level Washington Center
Mon 12:07:50 PM 37.9103 -75.7864 204° Southwest 449 517 32,000  Level Washington Center
Mon 12:08:50 PM 37.7808 -75.8625 205° Southwest 455 524 32,000  Level Washington Center
Mon 12:09:50 PM 37.6783 -75.9328 208° Southwest 460 529 32,000  Level Washington Center
Mon 12:10:50 PM 37.5656 -76.0031 206° Southwest 460 529 32,000  Level Washington Center
Mon 12:11:50 PM 37.4528 -76.0731 206° Southwest 460 529 32,000  Level Washington Center
Mon 12:12:50 PM 37.3378 -76.1403 205° Southwest 460 529 32,000  Level Washington Center
Mon 12:13:50 PM 37.2081 -76.2125 204° Southwest 465 535 32,000  Level Washington Center
Mon 12:14:50 PM 37.0928 -76.2844 206° Southwest 465 535 32,000  Level Washington Center
Mon 12:15:50 PM 36.9797 -76.3511 205° Southwest 460 529 32,000  Level Washington Center
Mon 12:16:50 PM 36.8667 -76.4175 205° Southwest 460 529 32,000  Level Washington Center
Mon 12:17:50 PM 36.7494 -76.4811 204° Southwest 460 529 32,000  Level Washington Center
Mon 12:18:50 PM 36.6281 -76.5339 199° South 460 529 32,000  Level Washington Center
Mon 12:19:50 PM 36.5067 -76.5867 199° South 465 535 32,000 -50 Level Washington Center
Mon 12:20:50 PM 36.3853 -76.6369 198° South 465 535 31,900  Descending Washington Center
Mon 12:21:50 PM 36.2658 -76.6842 198° South 465 535 32,000 50 Climbing Washington Center
Mon 12:22:50 PM 36.1486 -76.7367 200° South 465 535 32,000  Level Washington Center
Mon 12:23:50 PM 36.0311 -76.7864 199° South 465 535 32,000  Level Washington Center
Mon 12:24:50 PM 35.9097 -76.8383 199° South 465 535 32,000  Level Washington Center
Mon 12:25:50 PM 35.7922 -76.8878 199° South 465 535 32,000  Level Washington Center
Mon 12:26:50 PM 35.6728 -76.9344 198° South 459 528 32,000  Level Washington Center
Mon 12:27:50 PM 35.5617 -76.9861 201° Southwest 447 514 32,000  Level Washington Center
Mon 12:28:50 PM 35.4442 -77.0350 199° South 447 514 32,000  Level Washington Center
Mon 12:29:50 PM 35.3247 -77.0864 199° South 447 514 32,000  Level Washington Center
Mon 12:30:50 PM 35.2031 -77.1325 197° South 447 514 32,000  Level Washington Center
Mon 12:31:50 PM 35.0856 -77.1811 199° South 447 514 32,000  Level Washington Center
Mon 12:32:50 PM 34.9639 -77.2319 199° South 452 520 32,000  Level Washington Center
Mon 12:33:50 PM 34.8422 -77.2825 199° South 457 526 32,000  Level Washington Center
Mon 12:34:50 PM 34.7308 -77.3258 198° South 462 532 32,000  Level Washington Center
Mon 12:35:50 PM 34.6111 -77.3811 201° Southwest 467 537 32,000  Level Washington Center
Mon 12:36:50 PM 34.4853 -77.4314 198° South 467 537 32,000  Level Washington Center
Mon 12:37:50 PM 34.3636 -77.4789 198° South 467 537 32,000  Level Washington Center
Mon 12:38:50 PM 34.2397 -77.5289 198° South 467 537 32,000  Level Washington Center
Mon 12:39:50 PM 34.1178 -77.5761 198° South 467 537 32,000  Level Washington Center
Mon 12:40:20 PM 34.0447 -77.6047 198° South 464 534 32,000  Level Jacksonville Center
Mon 12:41:20 PM 33.9236 -77.6522 198° South 458 527 32,000  Level Jacksonville Center
Mon 12:42:20 PM 33.8006 -77.6994 198° South 458 527 32,000  Level Jacksonville Center
Mon 12:43:20 PM 33.6772 -77.7492 199° South 458 527 32,000  Level Jacksonville Center
Mon 12:44:20 PM 33.5747 -77.7925 199° South 464 534 32,000  Level Jacksonville Center
Mon 12:45:20 PM 33.4433 -77.8447 198° South 464 534 32,000  Level Jacksonville Center
Mon 12:46:20 PM 33.3219 -77.8914 198° South 464 534 32,000  Level Jacksonville Center
Mon 12:47:20 PM 33.1989 -77.9406 198° South 464 534 32,000  Level Jacksonville Center
Mon 12:48:20 PM 33.0797 -77.9892 199° South 464 534 32,000  Level Jacksonville Center
Mon 12:49:20 PM 32.9583 -78.0331 197° South 459 528 32,000  Level Jacksonville Center
Mon 12:50:20 PM 32.8369 -78.0817 199° South 454 522 32,000  Level Jacksonville Center
Mon 12:51:20 PM 32.7178 -78.1275 198° South 454 522 32,000  Level Jacksonville Center
Mon 12:52:20 PM 32.5961 -78.1733 198° South 454 522 32,000  Level Jacksonville Center
Mon 12:53:20 PM 32.4769 -78.2189 198° South 454 522 32,000  Level Jacksonville Center
Mon 12:54:20 PM 32.3556 -78.2669 198° South 454 522 32,000  Level Jacksonville Center
Mon 12:55:20 PM 32.2361 -78.3147 199° South 459 528 32,000  Level Jacksonville Center
Mon 12:56:19 PM 32.1147 -78.3625 198° South 459 528 32,000  Level Jacksonville Center
Mon 12:57:19 PM 31.9933 -78.4100 198° South 459 528 32,000  Level Jacksonville Center
Mon 12:58:20 PM 31.8736 -78.4525 197° South 453 521 32,000  Level Jacksonville Center
Mon 12:59:20 PM 31.7481 -78.5025 199° South 458 527 32,000  Level Jacksonville Center
Mon 01:00:19 PM 31.6244 -78.5500 198° South 458 527 32,000  Level Jacksonville Center
Mon 01:01:20 PM 31.5008 -78.5972 198° South 464 534 32,000 -694 Level Jacksonville Center
Mon 01:02:20 PM 31.3814 -78.6417 198° South 458 527 30,600 -1,000 Descending Jacksonville Center
Mon 01:03:20 PM 31.2597 -78.6858 197° South 458 527 30,000 -303 Descending Jacksonville Center
Mon 01:04:19 PM 31.1339 -78.7353 199° South 458 527 30,000  Level Jacksonville Center
Mon 01:05:20 PM 30.9958 -78.7875 198° South 465 535 30,000  Level Jacksonville Center
Mon 01:06:19 PM 30.8678 -78.8317 196° South 478 550 30,000  Level Jacksonville Center
Mon 01:07:19 PM 30.7419 -78.8806 198° South 481 554 30,000  Level Jacksonville Center
Mon 01:08:19 PM 30.6203 -78.9292 199° South 476 548 30,000  Level Jacksonville Center
Mon 01:09:19 PM 30.4981 -78.9761 198° South 484 557 30,000  Level Miami Center
Mon 01:10:19 PM 30.3639 -79.0192 195° South 463 533 30,000  Level Miami Center
Mon 01:11:19 PM 30.2364 -79.0500 192° South 477 549 30,000  Level Miami Center
Mon 01:12:19 PM 30.1067 -79.0833 193° South 482 555 30,000  Level Miami Center
Mon 01:13:19 PM 29.9808 -79.1264 197° South 482 555 30,000  Level Miami Center
Mon 01:14:19 PM 29.8511 -79.1547 191° South 477 549 30,000  Level Miami Center
Mon 01:15:19 PM 29.7275 -79.1928 195° South 467 537 30,000  Level Miami Center
Mon 01:16:19 PM 29.6019 -79.2208 191° South 467 537 30,000  Level Miami Center
Mon 01:17:19 PM 29.4681 -79.2442 189° South 474 545 30,000  Level Miami Center
Mon 01:18:19 PM 29.3467 -79.2772 193° South 468 539 30,000  Level Miami Center
Mon 01:19:19 PM 29.2228 -79.3103 193° South 468 539 30,000  Level Miami Center
Mon 01:20:19 PM 29.0992 -79.3431 193° South 468 539 30,000  Level Miami Center
Mon 01:21:19 PM 28.9736 -79.3758 193° South 463 533 30,000  Level Miami Center
Mon 01:22:19 PM 28.8497 -79.4064 192° South 463 533 30,000  Level Miami Center
Mon 01:23:19 PM 28.7242 -79.4342 191° South 463 533 30,000  Level Miami Center
Mon 01:24:19 PM 28.5983 -79.4667 193° South 463 533 30,000  Level Miami Center
Mon 01:25:19 PM 28.4683 -79.4967 191° South 468 539 30,000  Level Miami Center
Mon 01:26:19 PM 28.3447 -79.5292 193° South 468 539 30,000  Level Miami Center
Mon 01:27:19 PM 28.2167 -79.5592 192° South 468 539 30,000  Level Miami Center
Mon 01:28:19 PM 28.0931 -79.5892 192° South 468 539 30,000  Level Miami Center
Mon 01:29:19 PM 27.9672 -79.6192 192° South 468 539 30,000  Level Miami Center
Mon 01:30:19 PM 27.8436 -79.6489 192° South 468 539 30,000  Level Miami Center
Mon 01:31:19 PM 27.7322 -79.6792 194° South 463 533 30,000 -50 Level Miami Center
Mon 01:32:19 PM 27.6064 -79.7089 192° South 463 533 29,900 -1,450 Descending Miami Center
Mon 01:33:19 PM 27.4700 -79.7406 192° South 453 521 27,100 -2,700 Descending Miami Center
Mon 01:34:19 PM 27.3442 -79.7725 193° South 469 540 24,500 -2,250 Descending Miami Center
Mon 01:35:19 PM 27.2128 -79.7692 179° South 469 540 22,600 -2,100 Descending Miami Center
Mon 01:36:19 PM 27.1003 -79.7500 171° South 455 524 20,300 -2,350 Descending Miami Center
Mon 01:37:19 PM 26.9817 -79.7283 171° South 450 518 17,900 -2,400 Descending Miami Center
Mon 01:38:19 PM 26.8608 -79.7069 171° South 415 478 15,500 -1,975 Descending Miami Center
Mon 01:38:38 PM 26.8214 -79.7036 176° South 399 459 15,300 -600 Descending Miami Center
Mon 01:39:09 PM 26.7653 -79.6928 170° South 390 449 15,000 -1,826 Descending Miami Center
Mon 01:40:10 PM 26.6642 -79.7300 198° South 368 423 12,500 -2,631 Descending Miami Center
Mon 01:41:19 PM 26.5650 -79.7764 203° Southwest 376 433 9,300 -2,109 Descending Miami Center
Mon 01:42:18 PM 26.4661 -79.8203 202° Southwest 319 367 8,000 -650 Descending Miami Center
Mon 01:43:19 PM 26.4006 -79.8511 203° Southwest 306 352 8,000  Level Miami Center
Mon 01:44:19 PM 26.3328 -79.9075 217° Southwest 281 323 8,000 -500 Level Miami Center
Mon 01:45:19 PM 26.2814 -79.9569 221° Southwest 276 318 7,000 -1,017 Descending Miami Center
Mon 01:46:17 PM 26.2197 -80.0133 219° Southwest 269 310 6,000 -504 Descending Miami Center
Mon 01:47:18 PM 26.1767 -80.0678 229° Southwest 228 262 6,000  Level Miami Center
Mon 01:48:19 PM 26.1586 -80.1367 254° West 216 249 6,000  Level Miami Center
Mon 01:49:20 PM 26.1528 -80.2058 265° West 222 255 6,000 -634 Level Miami Center
Mon 01:50:22 PM 26.1492 -80.2706 266° West 213 245 4,700 -976 Descending Miami Center
Mon 01:51:23 PM 26.1453 -80.3422 267° West 219 252 4,000 -344 Descending Miami Center
Mon 01:52:24 PM 26.1419 -80.4022 266° West 197 227 4,000 -639 Level Miami Center
Mon 01:53:25 PM 26.0964 -80.3869 163° South 206 237 2,700 -927 Descending Miami Center
Mon 01:54:27 PM 26.0767 -80.3311 111° Southeast 190 219 2,100 -488 Descending Miami Center
Mon 01:55:28 PM 26.0742 -80.2661 92° East 187 215 1,700 -639 Descending Miami Center
Mon 01:56:29 PM 26.0753 -80.2106 89° East 174 200 800 -885 Descending Miami Center
Mon 01:58:00 PM 26.0667 -80.1500 103° East  Level FlightAware
Mon 02:05:00 PM 26.0726 -80.1527 103° East  Level Estimated

Login

Don't have an account? Register now (free) for customized features, flight alerts, and more!